createdAt,value
2017-03-13T00:00:15.210Z,-1.3
2017-03-13T00:00:33.873Z,-1.3
2017-03-13T00:00:52.530Z,-1.3
2017-03-13T00:01:11.192Z,-1.3
2017-03-13T00:01:29.848Z,-1.3
2017-03-13T00:01:48.501Z,-1.3
2017-03-13T00:02:07.171Z,-1.3
2017-03-13T00:02:25.835Z,-1.4
2017-03-13T00:02:44.489Z,-1.4
2017-03-13T00:03:03.140Z,-1.4
2017-03-13T00:03:21.809Z,-1.4
2017-03-13T00:03:40.465Z,-1.4
2017-03-13T00:03:59.140Z,-1.4
2017-03-13T00:04:17.801Z,-1.4
2017-03-13T00:04:36.450Z,-1.4
2017-03-13T00:04:55.103Z,-1.4
2017-03-13T00:05:13.755Z,-1.4
2017-03-13T00:05:32.415Z,-1.4
2017-03-13T00:05:51.073Z,-1.4
2017-03-13T00:06:09.732Z,-1.4
2017-03-13T00:06:28.387Z,-1.5
2017-03-13T00:06:47.041Z,-1.4
2017-03-13T00:07:05.688Z,-1.5
2017-03-13T00:07:24.368Z,-1.5
2017-03-13T00:07:43.017Z,-1.5
2017-03-13T00:08:01.681Z,-1.5
2017-03-13T00:08:20.349Z,-1.5
2017-03-13T00:08:39.037Z,-1.5
2017-03-13T00:08:57.690Z,-1.5
2017-03-13T00:09:16.345Z,-1.5
2017-03-13T00:09:35.004Z,-1.5
2017-03-13T00:09:53.674Z,-1.6
2017-03-13T00:10:12.336Z,-1.6
2017-03-13T00:10:31.005Z,-1.6
2017-03-13T00:10:49.654Z,-1.6
2017-03-13T00:11:08.313Z,-1.6
2017-03-13T00:11:26.973Z,-1.6
2017-03-13T00:11:45.628Z,-1.6
2017-03-13T00:12:04.316Z,-1.7
2017-03-13T00:12:22.969Z,-1.7
2017-03-13T00:12:41.648Z,-1.7
2017-03-13T00:13:00.307Z,-1.7
2017-03-13T00:13:18.974Z,-1.7
2017-03-13T00:13:37.638Z,-1.7
2017-03-13T00:13:56.292Z,-1.7
2017-03-13T00:14:14.947Z,-1.8
2017-03-13T00:14:33.599Z,-1.8
2017-03-13T00:14:52.252Z,-1.8
2017-03-13T00:15:10.904Z,-1.8
2017-03-13T00:15:29.555Z,-1.8
2017-03-13T00:15:48.213Z,-1.8
2017-03-13T00:16:06.869Z,-1.8
2017-03-13T00:16:25.529Z,-1.8
2017-03-13T00:16:44.214Z,-1.8
2017-03-13T00:17:02.862Z,-1.8
2017-03-13T00:17:21.539Z,-1.8
2017-03-13T00:17:40.201Z,-1.8
2017-03-13T00:17:58.858Z,-1.8
2017-03-13T00:18:17.557Z,-1.8
2017-03-13T00:18:36.211Z,-1.9
2017-03-13T00:18:54.866Z,-1.9
2017-03-13T00:19:13.520Z,-1.9
2017-03-13T00:19:32.176Z,-1.9
2017-03-13T00:19:50.835Z,-1.9
2017-03-13T00:20:09.487Z,-1.9
2017-03-13T00:20:28.157Z,-1.9
2017-03-13T00:20:46.810Z,-1.8
2017-03-13T00:21:05.471Z,-1.9
2017-03-13T00:21:24.150Z,-1.8
2017-03-13T00:21:42.805Z,-1.8
2017-03-13T00:22:01.459Z,-1.8
2017-03-13T00:22:20.117Z,-1.8
2017-03-13T00:22:38.776Z,-1.8
2017-03-13T00:22:57.432Z,-1.8
2017-03-13T00:23:16.114Z,-1.8
2017-03-13T00:23:34.787Z,-1.8
2017-03-13T00:23:53.448Z,-1.8
2017-03-13T00:24:12.099Z,-1.8
2017-03-13T00:24:30.771Z,-1.8
2017-03-13T00:24:49.426Z,-1.8
2017-03-13T00:25:08.091Z,-1.8
2017-03-13T00:25:26.745Z,-1.8
2017-03-13T00:25:45.403Z,-1.8
2017-03-13T00:26:04.089Z,-1.8
2017-03-13T00:26:22.740Z,-1.8
2017-03-13T00:26:41.398Z,-1.8
2017-03-13T00:27:00.045Z,-1.8
2017-03-13T00:27:18.706Z,-1.8
2017-03-13T00:27:37.359Z,-1.8
2017-03-13T00:27:56.015Z,-1.8
2017-03-13T00:28:14.698Z,-1.8
2017-03-13T00:28:33.367Z,-1.8
2017-03-13T00:28:52.030Z,-1.8
2017-03-13T00:29:10.699Z,-1.8
2017-03-13T00:29:29.359Z,-1.8
2017-03-13T00:29:48.056Z,-1.8
2017-03-13T00:30:06.717Z,-1.8
2017-03-13T00:30:25.376Z,-1.8
2017-03-13T00:30:44.076Z,-1.8
2017-03-13T00:31:02.747Z,-1.8
2017-03-13T00:31:21.401Z,-1.8
2017-03-13T00:31:40.067Z,-1.8
2017-03-13T00:31:58.722Z,-1.8
2017-03-13T00:32:17.387Z,-1.8
2017-03-13T00:32:36.047Z,-1.8
2017-03-13T00:32:54.706Z,-1.8
2017-03-13T00:33:13.373Z,-1.8
2017-03-13T00:33:32.021Z,-1.8
2017-03-13T00:33:50.707Z,-1.8
2017-03-13T00:34:09.359Z,-1.8
2017-03-13T00:34:28.027Z,-1.9
2017-03-13T00:34:46.679Z,-1.9
2017-03-13T00:35:05.328Z,-1.9
2017-03-13T00:35:24.004Z,-1.9
2017-03-13T00:35:42.657Z,-1.9
2017-03-13T00:36:01.316Z,-1.9
2017-03-13T00:36:19.970Z,-1.9
2017-03-13T00:36:38.623Z,-1.9
2017-03-13T00:36:57.285Z,-2
2017-03-13T00:37:15.965Z,-2
2017-03-13T00:37:34.624Z,-2
2017-03-13T00:37:53.274Z,-2
2017-03-13T00:38:11.921Z,-2
2017-03-13T00:38:30.574Z,-2
2017-03-13T00:38:49.255Z,-2
2017-03-13T00:39:07.908Z,-2
2017-03-13T00:39:26.569Z,-2
2017-03-13T00:39:45.226Z,-2
2017-03-13T00:40:03.900Z,-2
2017-03-13T00:40:22.556Z,-2
2017-03-13T00:40:41.219Z,-2
2017-03-13T00:40:59.881Z,-2
2017-03-13T00:41:18.540Z,-2
2017-03-13T00:41:37.194Z,-2
2017-03-13T00:41:55.853Z,-2.1
2017-03-13T00:42:14.510Z,-2.1
2017-03-13T00:42:33.159Z,-2.1
2017-03-13T00:42:51.819Z,-2.1
2017-03-13T00:43:10.475Z,-2.1
2017-03-13T00:43:29.157Z,-2.1
2017-03-13T00:43:47.825Z,-2.1
2017-03-13T00:44:06.484Z,-2.1
2017-03-13T00:44:25.158Z,-2.2
2017-03-13T00:44:43.829Z,-2.2
2017-03-13T00:45:02.497Z,-2.2
2017-03-13T00:45:21.171Z,-2.2
2017-03-13T00:45:39.831Z,-2.2
2017-03-13T00:45:58.494Z,-2.2
2017-03-13T00:46:17.149Z,-2.2
2017-03-13T00:46:35.809Z,-2.3
2017-03-13T00:46:54.475Z,-2.3
2017-03-13T00:47:13.126Z,-2.3
2017-03-13T00:47:31.779Z,-2.3
2017-03-13T00:47:50.429Z,-2.3
2017-03-13T00:48:09.107Z,-2.3
2017-03-13T00:48:27.762Z,-2.3
2017-03-13T00:48:46.428Z,-2.4
2017-03-13T00:49:05.077Z,-2.4
2017-03-13T00:49:23.736Z,-2.4
2017-03-13T00:49:42.433Z,-2.4
2017-03-13T00:50:01.087Z,-2.4
2017-03-13T00:50:19.742Z,-2.4
2017-03-13T00:50:38.404Z,-2.4
2017-03-13T00:50:57.056Z,-2.4
2017-03-13T00:51:15.707Z,-2.4
2017-03-13T00:51:34.362Z,-2.4
2017-03-13T00:51:53.019Z,-2.4
2017-03-13T00:52:11.674Z,-2.4
2017-03-13T00:52:30.332Z,-2.4
2017-03-13T00:52:49.015Z,-2.4
2017-03-13T00:53:07.671Z,-2.4
2017-03-13T00:53:26.321Z,-2.4
2017-03-13T00:53:44.969Z,-2.4
2017-03-13T00:54:03.633Z,-2.4
2017-03-13T00:54:22.288Z,-2.4
2017-03-13T00:54:40.945Z,-2.4
2017-03-13T00:54:59.622Z,-2.5
2017-03-13T00:55:18.272Z,-2.5
2017-03-13T00:55:36.921Z,-2.4
2017-03-13T00:55:55.576Z,-2.4
2017-03-13T00:56:14.229Z,-2.4
2017-03-13T00:56:32.882Z,-2.4
2017-03-13T00:56:51.534Z,-2.4
2017-03-13T00:57:10.186Z,-2.4
2017-03-13T00:57:28.858Z,-2.4
2017-03-13T00:57:47.506Z,-2.4
2017-03-13T00:58:06.190Z,-2.4
2017-03-13T00:58:24.850Z,-2.4
2017-03-13T00:58:43.506Z,-2.4
2017-03-13T00:59:02.163Z,-2.4
2017-03-13T00:59:20.815Z,-2.4
2017-03-13T00:59:39.470Z,-2.4
2017-03-13T00:59:58.126Z,-2.4
2017-03-13T01:00:16.792Z,-2.4
2017-03-13T01:00:35.456Z,-2.4
2017-03-13T01:00:54.141Z,-2.4
2017-03-13T01:01:12.823Z,-2.4
2017-03-13T01:01:31.478Z,-2.4
2017-03-13T01:01:50.131Z,-2.4
2017-03-13T01:02:08.819Z,-2.5
2017-03-13T01:02:27.473Z,-2.5
2017-03-13T01:02:46.138Z,-2.5
2017-03-13T01:03:04.785Z,-2.5
2017-03-13T01:03:23.438Z,-2.5
2017-03-13T01:03:42.099Z,-2.5
2017-03-13T01:04:00.750Z,-2.5
2017-03-13T01:04:19.404Z,-2.5
2017-03-13T01:04:38.069Z,-2.5
2017-03-13T01:04:56.723Z,-2.5
2017-03-13T01:05:15.381Z,-2.5
2017-03-13T01:05:34.083Z,-2.5
2017-03-13T01:05:52.757Z,-2.5
2017-03-13T01:06:11.409Z,-2.5
2017-03-13T01:06:30.073Z,-2.5
2017-03-13T01:06:48.729Z,-2.4
2017-03-13T01:07:07.401Z,-2.4
2017-03-13T01:07:26.066Z,-2.5
2017-03-13T01:07:44.720Z,-2.5
2017-03-13T01:08:03.372Z,-2.5
2017-03-13T01:08:22.029Z,-2.5
2017-03-13T01:08:40.684Z,-2.5
2017-03-13T01:08:59.338Z,-2.5
2017-03-13T01:09:18.020Z,-2.5
2017-03-13T01:09:36.678Z,-2.5
2017-03-13T01:09:55.358Z,-2.5
2017-03-13T01:10:14.053Z,-2.5
2017-03-13T01:10:32.705Z,-2.5
2017-03-13T01:10:51.377Z,-2.5
2017-03-13T01:11:10.032Z,-2.5
2017-03-13T01:11:28.712Z,-2.5
2017-03-13T01:11:47.381Z,-2.5
2017-03-13T01:12:06.036Z,-2.5
2017-03-13T01:12:24.693Z,-2.6
2017-03-13T01:12:43.343Z,-2.6
2017-03-13T01:13:01.995Z,-2.5
2017-03-13T01:13:20.661Z,-2.5
2017-03-13T01:13:39.313Z,-2.6
2017-03-13T01:13:57.978Z,-2.5
2017-03-13T01:14:16.662Z,-2.6
2017-03-13T01:14:35.317Z,-2.6
2017-03-13T01:14:54.000Z,-2.6
2017-03-13T01:15:12.658Z,-2.6
2017-03-13T01:15:31.313Z,-2.6
2017-03-13T01:15:49.963Z,-2.6
2017-03-13T01:16:08.640Z,-2.6
2017-03-13T01:16:27.333Z,-2.6
2017-03-13T01:16:45.993Z,-2.6
2017-03-13T01:17:04.651Z,-2.6
2017-03-13T01:17:23.307Z,-2.6
2017-03-13T01:17:41.957Z,-2.6
2017-03-13T01:18:00.610Z,-2.6
2017-03-13T01:18:19.268Z,-2.6
2017-03-13T01:18:37.925Z,-2.6
2017-03-13T01:18:56.580Z,-2.6
2017-03-13T01:19:15.233Z,-2.6
2017-03-13T01:19:33.924Z,-2.6
2017-03-13T01:19:52.572Z,-2.6
2017-03-13T01:20:11.230Z,-2.6
2017-03-13T01:20:29.886Z,-2.6
2017-03-13T01:20:48.547Z,-2.6
2017-03-13T01:21:07.233Z,-2.6
2017-03-13T01:21:25.912Z,-2.5
2017-03-13T01:21:44.579Z,-2.5
2017-03-13T01:22:03.237Z,-2.5
2017-03-13T01:22:21.890Z,-2.5
2017-03-13T01:22:40.542Z,-2.5
2017-03-13T01:22:59.197Z,-2.5
2017-03-13T01:23:17.852Z,-2.5
2017-03-13T01:23:36.510Z,-2.5
2017-03-13T01:23:55.167Z,-2.5
2017-03-13T01:24:13.856Z,-2.5
2017-03-13T01:24:32.531Z,-2.5
2017-03-13T01:24:51.184Z,-2.5
2017-03-13T01:25:09.843Z,-2.5
2017-03-13T01:25:28.496Z,-2.5
2017-03-13T01:25:47.186Z,-2.4
2017-03-13T01:26:05.850Z,-2.5
2017-03-13T01:26:24.504Z,-2.4
2017-03-13T01:26:43.158Z,-2.4
2017-03-13T01:27:01.810Z,-2.4
2017-03-13T01:27:20.467Z,-2.4
2017-03-13T01:27:39.121Z,-2.4
2017-03-13T01:27:57.772Z,-2.4
2017-03-13T01:28:16.441Z,-2.4
2017-03-13T01:28:35.099Z,-2.4
2017-03-13T01:28:53.778Z,-2.4
2017-03-13T01:29:12.428Z,-2.4
2017-03-13T01:29:31.084Z,-2.4
2017-03-13T01:29:49.739Z,-2.4
2017-03-13T01:30:08.391Z,-2.4
2017-03-13T01:30:27.054Z,-2.4
2017-03-13T01:30:45.714Z,-2.4
2017-03-13T01:31:04.376Z,-2.4
2017-03-13T01:31:23.033Z,-2.4
2017-03-13T01:31:41.686Z,-2.4
2017-03-13T01:32:00.372Z,-2.4
2017-03-13T01:32:19.024Z,-2.4
2017-03-13T01:32:37.676Z,-2.5
2017-03-13T01:32:56.333Z,-2.4
2017-03-13T01:33:14.989Z,-2.5
2017-03-13T01:33:33.661Z,-2.5
2017-03-13T01:33:52.314Z,-2.5
2017-03-13T01:34:10.972Z,-2.5
2017-03-13T01:34:29.627Z,-2.5
2017-03-13T01:34:48.278Z,-2.5
2017-03-13T01:35:06.937Z,-2.5
2017-03-13T01:35:25.591Z,-2.6
2017-03-13T01:35:44.260Z,-2.6
2017-03-13T01:36:02.917Z,-2.6
2017-03-13T01:36:21.567Z,-2.6
2017-03-13T01:36:40.219Z,-2.6
2017-03-13T01:36:58.916Z,-2.6
2017-03-13T01:37:17.591Z,-2.6
2017-03-13T01:37:36.239Z,-2.6
2017-03-13T01:37:54.895Z,-2.6
2017-03-13T01:38:13.561Z,-2.6
2017-03-13T01:38:32.243Z,-2.6
2017-03-13T01:38:50.900Z,-2.6
2017-03-13T01:39:09.567Z,-2.6
2017-03-13T01:39:28.245Z,-2.6
2017-03-13T01:39:46.917Z,-2.6
2017-03-13T01:40:05.562Z,-2.6
2017-03-13T01:40:24.221Z,-2.6
2017-03-13T01:40:42.882Z,-2.5
2017-03-13T01:41:01.543Z,-2.5
2017-03-13T01:41:20.199Z,-2.5
2017-03-13T01:41:38.887Z,-2.5
2017-03-13T01:41:57.543Z,-2.5
2017-03-13T01:42:16.197Z,-2.5
2017-03-13T01:42:34.867Z,-2.5
2017-03-13T01:42:53.535Z,-2.5
2017-03-13T01:43:12.222Z,-2.5
2017-03-13T01:43:30.875Z,-2.5
2017-03-13T01:43:49.522Z,-2.5
2017-03-13T01:44:08.182Z,-2.5
2017-03-13T01:44:26.838Z,-2.5
2017-03-13T01:44:45.486Z,-2.5
2017-03-13T01:45:04.149Z,-2.5
2017-03-13T01:45:22.803Z,-2.5
2017-03-13T01:45:41.454Z,-2.5
2017-03-13T01:46:00.108Z,-2.5
2017-03-13T01:46:18.794Z,-2.5
2017-03-13T01:46:37.450Z,-2.5
2017-03-13T01:46:56.110Z,-2.5
2017-03-13T01:47:14.764Z,-2.6
2017-03-13T01:47:33.421Z,-2.6
2017-03-13T01:47:52.120Z,-2.6
2017-03-13T01:48:10.773Z,-2.6
2017-03-13T01:48:29.433Z,-2.6
2017-03-13T01:48:48.095Z,-2.6
2017-03-13T01:49:06.745Z,-2.6
2017-03-13T01:49:25.399Z,-2.6
2017-03-13T01:49:44.053Z,-2.6
2017-03-13T01:50:02.715Z,-2.6
2017-03-13T01:50:21.368Z,-2.6
2017-03-13T01:50:40.028Z,-2.6
2017-03-13T01:50:58.709Z,-2.6
2017-03-13T01:51:17.367Z,-2.7
2017-03-13T01:51:36.016Z,-2.7
2017-03-13T01:51:54.670Z,-2.7
2017-03-13T01:52:13.323Z,-2.7
2017-03-13T01:52:31.992Z,-2.7
2017-03-13T01:52:50.644Z,-2.7
2017-03-13T01:53:09.306Z,-2.7
2017-03-13T01:53:27.967Z,-2.7
2017-03-13T01:53:46.621Z,-2.7
2017-03-13T01:54:05.277Z,-2.7
2017-03-13T01:54:23.936Z,-2.7
2017-03-13T01:54:42.600Z,-2.8
2017-03-13T01:55:01.287Z,-2.8
2017-03-13T01:55:19.953Z,-2.7
2017-03-13T01:55:38.632Z,-2.8
2017-03-13T01:55:57.297Z,-2.8
2017-03-13T01:56:15.949Z,-2.8
2017-03-13T01:56:34.610Z,-2.8
2017-03-13T01:56:53.264Z,-2.8
2017-03-13T01:57:11.920Z,-2.8
2017-03-13T01:57:30.570Z,-2.8
2017-03-13T01:57:49.220Z,-2.8
2017-03-13T01:58:07.883Z,-2.8
2017-03-13T01:58:26.564Z,-2.8
2017-03-13T01:58:45.220Z,-2.8
2017-03-13T01:59:03.886Z,-2.8
2017-03-13T01:59:22.544Z,-2.8
2017-03-13T01:59:41.201Z,-2.8
2017-03-13T01:59:59.865Z,-2.8
2017-03-13T02:00:18.532Z,-2.8
2017-03-13T02:00:37.193Z,-2.8
2017-03-13T02:00:55.859Z,-2.8
2017-03-13T02:01:14.515Z,-2.8
2017-03-13T02:01:33.169Z,-2.9
2017-03-13T02:01:51.836Z,-2.9
2017-03-13T02:02:10.495Z,-2.9
2017-03-13T02:02:29.147Z,-2.9
2017-03-13T02:02:47.811Z,-2.9
2017-03-13T02:03:06.486Z,-2.9
2017-03-13T02:03:25.138Z,-2.9
2017-03-13T02:03:43.834Z,-2.9
2017-03-13T02:04:02.487Z,-2.9
2017-03-13T02:04:21.143Z,-3
2017-03-13T02:04:39.795Z,-3
2017-03-13T02:04:58.458Z,-2.9
2017-03-13T02:05:17.138Z,-3
2017-03-13T02:05:35.797Z,-3
2017-03-13T02:05:54.452Z,-3
2017-03-13T02:06:13.105Z,-3
2017-03-13T02:06:31.761Z,-3
2017-03-13T02:06:50.418Z,-3.1
2017-03-13T02:07:09.069Z,-3.1
2017-03-13T02:07:27.719Z,-3.1
2017-03-13T02:07:46.372Z,-3.1
2017-03-13T02:08:05.033Z,-3.1
2017-03-13T02:08:23.717Z,-3.1
2017-03-13T02:08:42.371Z,-3.1
2017-03-13T02:09:01.041Z,-3.2
2017-03-13T02:09:19.696Z,-3.2
2017-03-13T02:09:38.348Z,-3.2
2017-03-13T02:09:57.032Z,-3.2
2017-03-13T02:10:15.702Z,-3.2
2017-03-13T02:10:34.356Z,-3.2
2017-03-13T02:10:53.014Z,-3.2
2017-03-13T02:11:11.676Z,-3.2
2017-03-13T02:11:30.327Z,-3.2
2017-03-13T02:11:48.990Z,-3.2
2017-03-13T02:12:07.644Z,-3.2
2017-03-13T02:12:26.306Z,-3.2
2017-03-13T02:12:44.955Z,-3.2
2017-03-13T02:13:03.630Z,-3.3
2017-03-13T02:13:22.290Z,-3.3
2017-03-13T02:13:40.950Z,-3.3
2017-03-13T02:13:59.601Z,-3.3
2017-03-13T02:14:18.274Z,-3.3
2017-03-13T02:14:36.925Z,-3.3
2017-03-13T02:14:55.608Z,-3.3
2017-03-13T02:15:14.262Z,-3.3
2017-03-13T02:15:32.922Z,-3.3
2017-03-13T02:15:51.578Z,-3.3
2017-03-13T02:16:10.231Z,-3.3
2017-03-13T02:16:28.882Z,-3.3
2017-03-13T02:16:47.560Z,-3.3
2017-03-13T02:17:06.219Z,-3.3
2017-03-13T02:17:24.870Z,-3.3
2017-03-13T02:17:43.543Z,-3.3
2017-03-13T02:18:02.199Z,-3.3
2017-03-13T02:18:20.851Z,-3.3
2017-03-13T02:18:39.502Z,-3.3
2017-03-13T02:18:58.157Z,-3.3
2017-03-13T02:19:16.817Z,-3.3
2017-03-13T02:19:35.489Z,-3.3
2017-03-13T02:19:54.149Z,-3.3
2017-03-13T02:20:12.800Z,-3.3
2017-03-13T02:20:31.457Z,-3.3
2017-03-13T02:20:50.106Z,-3.3
2017-03-13T02:21:08.786Z,-3.3
2017-03-13T02:21:27.440Z,-3.3
2017-03-13T02:21:46.090Z,-3.3
2017-03-13T02:22:04.744Z,-3.3
2017-03-13T02:22:23.411Z,-3.3
2017-03-13T02:22:42.072Z,-3.3
2017-03-13T02:23:00.724Z,-3.3
2017-03-13T02:23:19.383Z,-3.3
2017-03-13T02:23:38.032Z,-3.3
2017-03-13T02:23:56.682Z,-3.3
2017-03-13T02:24:15.339Z,-3.3
2017-03-13T02:24:33.994Z,-3.3
2017-03-13T02:24:52.674Z,-3.3
2017-03-13T02:25:11.329Z,-3.3
2017-03-13T02:25:29.996Z,-3.3
2017-03-13T02:25:48.682Z,-3.4
2017-03-13T02:26:07.359Z,-3.4
2017-03-13T02:26:26.013Z,-3.4
2017-03-13T02:26:44.664Z,-3.4
2017-03-13T02:27:03.322Z,-3.4
2017-03-13T02:27:22.013Z,-3.4
2017-03-13T02:27:40.662Z,-3.4
2017-03-13T02:27:59.321Z,-3.4
2017-03-13T02:28:17.987Z,-3.4
2017-03-13T02:28:36.632Z,-3.5
2017-03-13T02:28:55.284Z,-3.5
2017-03-13T02:29:13.950Z,-3.5
2017-03-13T02:29:32.604Z,-3.5
2017-03-13T02:29:51.261Z,-3.5
2017-03-13T02:30:09.932Z,-3.5
2017-03-13T02:30:28.603Z,-3.5
2017-03-13T02:30:47.265Z,-3.5
2017-03-13T02:31:05.926Z,-3.5
2017-03-13T02:31:24.575Z,-3.5
2017-03-13T02:31:43.242Z,-3.5
2017-03-13T02:32:01.932Z,-3.5
2017-03-13T02:32:20.584Z,-3.5
2017-03-13T02:32:39.239Z,-3.5
2017-03-13T02:32:57.894Z,-3.5
2017-03-13T02:33:16.545Z,-3.5
2017-03-13T02:33:35.199Z,-3.5
2017-03-13T02:33:53.853Z,-3.5
2017-03-13T02:34:12.505Z,-3.5
2017-03-13T02:34:31.160Z,-3.5
2017-03-13T02:34:49.821Z,-3.5
2017-03-13T02:35:08.505Z,-3.5
2017-03-13T02:35:27.169Z,-3.5
2017-03-13T02:35:45.855Z,-3.6
2017-03-13T02:36:04.513Z,-3.5
2017-03-13T02:36:23.163Z,-3.6
2017-03-13T02:36:41.818Z,-3.6
2017-03-13T02:37:00.471Z,-3.6
2017-03-13T02:37:19.129Z,-3.6
2017-03-13T02:37:37.781Z,-3.6
2017-03-13T02:37:56.437Z,-3.6
2017-03-13T02:38:15.100Z,-3.6
2017-03-13T02:38:33.754Z,-3.6
2017-03-13T02:38:52.428Z,-3.6
2017-03-13T02:39:11.081Z,-3.6
2017-03-13T02:39:29.741Z,-3.6
2017-03-13T02:39:48.416Z,-3.6
2017-03-13T02:40:07.073Z,-3.6
2017-03-13T02:40:25.737Z,-3.6
2017-03-13T02:40:44.425Z,-3.6
2017-03-13T02:41:03.079Z,-3.6
2017-03-13T02:41:21.753Z,-3.6
2017-03-13T02:41:40.399Z,-3.6
2017-03-13T02:41:59.055Z,-3.6
2017-03-13T02:42:17.708Z,-3.6
2017-03-13T02:42:36.362Z,-3.6
2017-03-13T02:42:55.031Z,-3.6
2017-03-13T02:43:13.700Z,-3.6
2017-03-13T02:43:32.349Z,-3.6
2017-03-13T02:43:51.001Z,-3.6
2017-03-13T02:44:09.660Z,-3.6
2017-03-13T02:44:28.346Z,-3.6
2017-03-13T02:44:47.007Z,-3.6
2017-03-13T02:45:05.669Z,-3.6
2017-03-13T02:45:24.330Z,-3.6
2017-03-13T02:45:43.003Z,-3.6
2017-03-13T02:46:01.676Z,-3.6
2017-03-13T02:46:20.328Z,-3.6
2017-03-13T02:46:38.982Z,-3.6
2017-03-13T02:46:57.639Z,-3.6
2017-03-13T02:47:16.315Z,-3.6
2017-03-13T02:47:34.976Z,-3.6
2017-03-13T02:47:53.654Z,-3.6
2017-03-13T02:48:12.321Z,-3.6
2017-03-13T02:48:30.977Z,-3.6
2017-03-13T02:48:49.629Z,-3.6
2017-03-13T02:49:08.290Z,-3.5
2017-03-13T02:49:26.959Z,-3.6
2017-03-13T02:49:45.609Z,-3.6
2017-03-13T02:50:04.263Z,-3.6
2017-03-13T02:50:22.917Z,-3.6
2017-03-13T02:50:41.583Z,-3.6
2017-03-13T02:51:00.236Z,-3.6
2017-03-13T02:51:18.896Z,-3.6
2017-03-13T02:51:37.554Z,-3.6
2017-03-13T02:51:56.220Z,-3.6
2017-03-13T02:52:14.883Z,-3.6
2017-03-13T02:52:33.571Z,-3.6
2017-03-13T02:52:52.229Z,-3.6
2017-03-13T02:53:10.887Z,-3.6
2017-03-13T02:53:29.543Z,-3.6
2017-03-13T02:53:48.207Z,-3.6
2017-03-13T02:54:06.893Z,-3.6
2017-03-13T02:54:25.545Z,-3.6
2017-03-13T02:54:44.197Z,-3.6
2017-03-13T02:55:02.861Z,-3.6
2017-03-13T02:55:21.516Z,-3.6
2017-03-13T02:55:40.173Z,-3.6
2017-03-13T02:55:58.852Z,-3.6
2017-03-13T02:56:17.506Z,-3.6
2017-03-13T02:56:36.174Z,-3.6
2017-03-13T02:56:54.829Z,-3.6
2017-03-13T02:57:13.509Z,-3.6
2017-03-13T02:57:32.169Z,-3.6
2017-03-13T02:57:50.822Z,-3.6
2017-03-13T02:58:09.482Z,-3.6
2017-03-13T02:58:28.144Z,-3.6
2017-03-13T02:58:46.835Z,-3.6
2017-03-13T02:59:05.495Z,-3.6
2017-03-13T02:59:24.150Z,-3.6
2017-03-13T02:59:42.802Z,-3.6
2017-03-13T03:00:01.462Z,-3.6
2017-03-13T03:00:20.115Z,-3.6
2017-03-13T03:00:38.778Z,-3.6
2017-03-13T03:00:57.425Z,-3.6
2017-03-13T03:01:16.080Z,-3.6
2017-03-13T03:01:34.731Z,-3.6
2017-03-13T03:01:53.431Z,-3.6
2017-03-13T03:02:12.094Z,-3.6
2017-03-13T03:02:30.752Z,-3.6
2017-03-13T03:02:49.405Z,-3.6
2017-03-13T03:03:08.071Z,-3.6
2017-03-13T03:03:26.728Z,-3.6
2017-03-13T03:03:45.387Z,-3.6
2017-03-13T03:04:04.037Z,-3.6
2017-03-13T03:04:22.686Z,-3.6
2017-03-13T03:04:41.343Z,-3.7
2017-03-13T03:04:59.996Z,-3.6
2017-03-13T03:05:18.648Z,-3.7
2017-03-13T03:05:37.301Z,-3.7
2017-03-13T03:05:55.959Z,-3.7
2017-03-13T03:06:14.614Z,-3.7
2017-03-13T03:06:33.295Z,-3.7
2017-03-13T03:06:51.958Z,-3.7
2017-03-13T03:07:10.638Z,-3.7
2017-03-13T03:07:29.312Z,-3.6
2017-03-13T03:07:47.962Z,-3.7
2017-03-13T03:08:06.621Z,-3.6
2017-03-13T03:08:25.277Z,-3.6
2017-03-13T03:08:43.933Z,-3.7
2017-03-13T03:09:02.591Z,-3.6
2017-03-13T03:09:21.250Z,-3.7
2017-03-13T03:09:39.907Z,-3.7
2017-03-13T03:09:58.574Z,-3.7
2017-03-13T03:10:17.239Z,-3.7
2017-03-13T03:10:35.894Z,-3.7
2017-03-13T03:10:54.552Z,-3.7
2017-03-13T03:11:13.236Z,-3.7
2017-03-13T03:11:31.891Z,-3.7
2017-03-13T03:11:50.546Z,-3.7
2017-03-13T03:12:09.213Z,-3.7
2017-03-13T03:12:27.870Z,-3.7
2017-03-13T03:12:46.523Z,-3.7
2017-03-13T03:13:05.174Z,-3.7
2017-03-13T03:13:23.837Z,-3.7
2017-03-13T03:13:42.489Z,-3.8
2017-03-13T03:14:01.154Z,-3.8
2017-03-13T03:14:19.813Z,-3.8
2017-03-13T03:14:38.498Z,-3.8
2017-03-13T03:14:57.154Z,-3.8
2017-03-13T03:15:15.806Z,-3.8
2017-03-13T03:15:34.461Z,-3.8
2017-03-13T03:15:53.113Z,-3.8
2017-03-13T03:16:11.865Z,-3.8
2017-03-13T03:16:30.515Z,-3.8
2017-03-13T03:16:49.174Z,-3.8
2017-03-13T03:17:07.827Z,-3.8
2017-03-13T03:17:26.481Z,-3.8
2017-03-13T03:17:45.154Z,-3.8
2017-03-13T03:18:03.808Z,-3.8
2017-03-13T03:18:22.464Z,-3.8
2017-03-13T03:18:41.115Z,-3.9
2017-03-13T03:18:59.766Z,-3.8
2017-03-13T03:19:18.454Z,-3.8
2017-03-13T03:19:37.109Z,-3.8
2017-03-13T03:19:55.772Z,-3.8
2017-03-13T03:20:14.423Z,-3.8
2017-03-13T03:20:33.080Z,-3.8
2017-03-13T03:20:51.773Z,-3.9
2017-03-13T03:21:10.430Z,-3.9
2017-03-13T03:21:29.083Z,-3.8
2017-03-13T03:21:47.745Z,-3.9
2017-03-13T03:22:06.440Z,-3.9
2017-03-13T03:22:25.143Z,-3.9
2017-03-13T03:22:43.799Z,-3.9
2017-03-13T03:23:02.472Z,-3.9
2017-03-13T03:23:21.136Z,-3.9
2017-03-13T03:23:39.794Z,-3.9
2017-03-13T03:23:58.480Z,-3.9
2017-03-13T03:24:17.133Z,-3.9
2017-03-13T03:24:35.802Z,-3.9
2017-03-13T03:24:54.457Z,-3.9
2017-03-13T03:25:13.166Z,-3.9
2017-03-13T03:25:31.822Z,-3.9
2017-03-13T03:25:50.474Z,-3.9
2017-03-13T03:26:09.123Z,-3.9
2017-03-13T03:26:27.784Z,-3.9
2017-03-13T03:26:46.442Z,-3.9
2017-03-13T03:27:05.094Z,-3.9
2017-03-13T03:27:23.761Z,-3.9
2017-03-13T03:27:42.420Z,-3.9
2017-03-13T03:28:01.096Z,-3.9
2017-03-13T03:28:19.775Z,-3.9
2017-03-13T03:28:38.467Z,-3.9
2017-03-13T03:28:57.125Z,-3.9
2017-03-13T03:29:15.783Z,-3.9
2017-03-13T03:29:34.434Z,-3.9
2017-03-13T03:29:53.112Z,-3.9
2017-03-13T03:30:11.786Z,-3.9
2017-03-13T03:30:30.438Z,-3.9
2017-03-13T03:30:49.106Z,-3.9
2017-03-13T03:31:07.757Z,-3.9
2017-03-13T03:31:26.420Z,-3.9
2017-03-13T03:31:45.072Z,-4
2017-03-13T03:32:03.737Z,-3.9
2017-03-13T03:32:22.388Z,-4
2017-03-13T03:32:41.042Z,-4
2017-03-13T03:32:59.701Z,-4
2017-03-13T03:33:18.385Z,-4
2017-03-13T03:33:37.059Z,-4
2017-03-13T03:33:55.718Z,-4
2017-03-13T03:34:14.371Z,-4
2017-03-13T03:34:33.026Z,-4
2017-03-13T03:34:51.713Z,-4
2017-03-13T03:35:10.367Z,-4
2017-03-13T03:35:29.024Z,-4
2017-03-13T03:35:47.676Z,-4
2017-03-13T03:36:06.331Z,-4
2017-03-13T03:36:24.994Z,-4
2017-03-13T03:36:43.648Z,-4
2017-03-13T03:37:02.309Z,-4
2017-03-13T03:37:20.966Z,-4
2017-03-13T03:37:39.623Z,-4
2017-03-13T03:37:58.307Z,-4
2017-03-13T03:38:16.961Z,-4
2017-03-13T03:38:35.617Z,-4
2017-03-13T03:38:54.286Z,-4
2017-03-13T03:39:12.940Z,-3.9
2017-03-13T03:39:31.597Z,-3.9
2017-03-13T03:39:50.247Z,-3.9
2017-03-13T03:40:08.898Z,-4
2017-03-13T03:40:27.556Z,-4
2017-03-13T03:40:46.214Z,-4
2017-03-13T03:41:04.869Z,-4
2017-03-13T03:41:23.528Z,-4
2017-03-13T03:41:42.198Z,-4
2017-03-13T03:42:00.872Z,-4
2017-03-13T03:42:19.524Z,-4
2017-03-13T03:42:38.219Z,-4
2017-03-13T03:42:56.886Z,-4
2017-03-13T03:43:15.560Z,-4
2017-03-13T03:43:34.208Z,-4
2017-03-13T03:43:52.864Z,-4
2017-03-13T03:44:11.553Z,-4
2017-03-13T03:44:30.220Z,-4.1
2017-03-13T03:44:48.875Z,-4.1
2017-03-13T03:45:07.529Z,-4.1
2017-03-13T03:45:26.194Z,-4.1
2017-03-13T03:45:44.848Z,-4.1
2017-03-13T03:46:03.502Z,-4.1
2017-03-13T03:46:22.155Z,-4.1
2017-03-13T03:46:40.814Z,-4.1
2017-03-13T03:46:59.470Z,-4.2
2017-03-13T03:47:18.140Z,-4.1
2017-03-13T03:47:36.795Z,-4.2
2017-03-13T03:47:55.450Z,-4.2
2017-03-13T03:48:14.112Z,-4.2
2017-03-13T03:48:32.771Z,-4.2
2017-03-13T03:48:51.423Z,-4.2
2017-03-13T03:49:10.085Z,-4.2
2017-03-13T03:49:28.750Z,-4.2
2017-03-13T03:49:47.403Z,-4.2
2017-03-13T03:50:06.065Z,-4.2
2017-03-13T03:50:24.720Z,-4.2
2017-03-13T03:50:43.403Z,-4.2
2017-03-13T03:51:02.065Z,-4.2
2017-03-13T03:51:20.730Z,-4.2
2017-03-13T03:51:39.391Z,-4.2
2017-03-13T03:51:58.058Z,-4.2
2017-03-13T03:52:16.716Z,-4.2
2017-03-13T03:52:35.387Z,-4.2
2017-03-13T03:52:54.044Z,-4.2
2017-03-13T03:53:12.697Z,-4.2
2017-03-13T03:53:31.350Z,-4.2
2017-03-13T03:53:50.011Z,-4.2
2017-03-13T03:54:08.675Z,-4.2
2017-03-13T03:54:27.328Z,-4.2
2017-03-13T03:54:46.000Z,-4.2
2017-03-13T03:55:04.677Z,-4.2
2017-03-13T03:55:23.360Z,-4.2
2017-03-13T03:55:42.014Z,-4.2
2017-03-13T03:56:00.668Z,-4.2
2017-03-13T03:56:19.336Z,-4.2
2017-03-13T03:56:38.002Z,-4.2
2017-03-13T03:56:56.687Z,-4.2
2017-03-13T03:57:15.347Z,-4.2
2017-03-13T03:57:34.002Z,-4.2
2017-03-13T03:57:52.665Z,-4.2
2017-03-13T03:58:11.334Z,-4.2
2017-03-13T03:58:29.998Z,-4.2
2017-03-13T03:58:48.651Z,-4.2
2017-03-13T03:59:07.317Z,-4.2
2017-03-13T03:59:25.969Z,-4.2
2017-03-13T03:59:44.630Z,-4.2
2017-03-13T04:00:03.319Z,-4.2
2017-03-13T04:00:21.974Z,-4.2
2017-03-13T04:00:40.626Z,-4.1
2017-03-13T04:00:59.275Z,-4.2
2017-03-13T04:01:17.927Z,-4.2
2017-03-13T04:01:36.623Z,-4.2
2017-03-13T04:01:55.281Z,-4.2
2017-03-13T04:02:13.930Z,-4.2
2017-03-13T04:02:32.602Z,-4.2
2017-03-13T04:02:51.271Z,-4.2
2017-03-13T04:03:09.928Z,-4.2
2017-03-13T04:03:28.582Z,-4.2
2017-03-13T04:03:47.232Z,-4.2
2017-03-13T04:04:05.890Z,-4.2
2017-03-13T04:04:24.545Z,-4.2
2017-03-13T04:04:43.224Z,-4.2
2017-03-13T04:05:01.893Z,-4.2
2017-03-13T04:05:20.563Z,-4.2
2017-03-13T04:05:39.216Z,-4.1
2017-03-13T04:05:57.872Z,-4.1
2017-03-13T04:06:16.576Z,-4.1
2017-03-13T04:06:35.229Z,-4.1
2017-03-13T04:06:53.897Z,-4.2
2017-03-13T04:07:12.547Z,-4.2
2017-03-13T04:07:31.198Z,-4.1
2017-03-13T04:07:49.852Z,-4.1
2017-03-13T04:08:08.508Z,-4.2
2017-03-13T04:08:27.161Z,-4.2
2017-03-13T04:08:45.821Z,-4.2
2017-03-13T04:09:04.477Z,-4.1
2017-03-13T04:09:23.163Z,-4.2
2017-03-13T04:09:41.820Z,-4.1